Time;durP1;ratioP1;P1;durP2;ratioP2;P2;SDS_P1;SDS_P2;PMS_P1;PMS_P2;Temp;Humidity;BMP_temperature;BMP_pressure;BME280_temperature;BME280_humidity;BME280_pressure;Samples;Min_cycle;Max_cycle;Signal;HPM_P1;HPM_P2
2022/06/06 00:00:10;;;;;;;4.65;3.03;;;;;;;11.54;100.00;93330.88;2081886;28;20068;-85
2022/06/06 00:01:19;;;;;;;3.58;2.60;;;;;;;11.55;100.00;93327.06;2082786;28;20021;-85
2022/06/06 00:02:22;;;;;;;3.92;2.60;;;;;;;11.61;100.00;93330.00;2095487;28;20020;-85
2022/06/06 00:03:24;;;;;;;5.13;2.70;;;;;;;11.60;100.00;93329.22;2090743;28;20025;-84
2022/06/06 00:04:27;;;;;;;6.95;3.42;;;;;;;11.55;100.00;93323.63;2098435;28;20074;-85
2022/06/06 00:05:29;;;;;;;3.55;2.63;;;;;;;11.60;100.00;93323.13;2098899;28;20025;-86
2022/06/06 00:06:30;;;;;;;2.50;2.30;;;;;;;11.56;100.00;93317.84;2106485;28;20043;-86
2022/06/06 00:07:31;;;;;;;8.85;2.80;;;;;;;11.55;100.00;93321.69;2098151;28;20032;-85
2022/06/06 00:08:32;;;;;;;5.65;2.60;;;;;;;11.53;100.00;93321.34;2090102;28;20355;-86
2022/06/06 00:09:34;;;;;;;2.90;2.35;;;;;;;11.45;100.00;93328.03;2098359;28;20695;-85
2022/06/06 00:10:35;;;;;;;6.07;2.45;;;;;;;11.47;100.00;93325.69;2098017;28;20484;-85
2022/06/06 00:11:36;;;;;;;3.67;2.20;;;;;;;11.51;100.00;93323.69;2098237;28;20029;-85
2022/06/06 00:12:37;;;;;;;4.18;2.60;;;;;;;11.49;100.00;93318.00;2090053;28;20516;-86
2022/06/06 00:13:42;;;;;;;4.75;2.70;;;;;;;11.50;100.00;93316.84;2089662;28;20079;-86
2022/06/06 00:14:44;;;;;;;4.78;2.40;;;;;;;11.46;100.00;93315.41;2099211;28;20751;-86
2022/06/06 00:15:45;;;;;;;3.10;2.40;;;;;;;11.42;100.00;93301.34;2098026;28;20517;-86
2022/06/06 00:16:46;;;;;;;5.70;2.25;;;;;;;11.34;100.00;93306.84;2089830;28;20112;-85
2022/06/06 00:17:48;;;;;;;4.55;2.47;;;;;;;11.42;100.00;93298.69;2089991;28;20025;-86
2022/06/06 00:18:49;;;;;;;4.75;2.38;;;;;;;11.58;100.00;93310.16;2081841;28;20029;-86
2022/06/06 00:19:50;;;;;;;4.57;2.28;;;;;;;11.60;100.00;93307.06;2081729;28;20064;-85
2022/06/06 00:20:52;;;;;;;2.83;2.53;;;;;;;11.51;100.00;93309.56;2089623;28;20063;-86
2022/06/06 00:21:53;;;;;;;4.38;2.53;;;;;;;11.47;100.00;93306.97;2090034;28;20052;-86
2022/06/06 00:22:54;;;;;;;3.83;2.50;;;;;;;11.44;100.00;93307.78;2081813;28;20123;-86
2022/06/06 00:23:59;;;;;;;3.25;2.95;;;;;;;11.43;100.00;93302.88;2081597;28;20770;-85
2022/06/06 00:25:00;;;;;;;9.23;2.60;;;;;;;11.57;100.00;93300.59;2084193;28;20017;-85
2022/06/06 00:26:05;;;;;;;6.57;2.47;;;;;;;11.49;100.00;93307.28;2098115;28;20041;-86
2022/06/06 00:27:06;;;;;;;4.35;2.83;;;;;;;11.45;100.00;93309.28;2090904;28;20044;-86
2022/06/06 00:28:07;;;;;;;5.75;2.55;;;;;;;11.38;100.00;93306.78;2089769;28;20520;-86
2022/06/06 00:29:12;;;;;;;3.78;2.42;;;;;;;11.30;100.00;93314.22;2089728;28;20024;-85
2022/06/06 00:30:13;;;;;;;4.28;2.78;;;;;;;11.28;100.00;93299.72;2090890;28;20367;-85
2022/06/06 00:35:36;;;;;;;3.05;2.67;;;;;;;11.50;100.00;93302.69;2072871;28;20479;-85
2022/06/06 00:36:38;;;;;;;4.30;3.25;;;;;;;11.48;100.00;93299.69;2064802;28;20027;-85
2022/06/06 00:37:41;;;;;;;5.03;2.67;;;;;;;11.55;100.00;93297.59;2064968;28;20030;-85
2022/06/06 00:38:42;;;;;;;4.47;2.80;;;;;;;11.41;100.00;93299.84;2081165;28;20036;-85
2022/06/06 00:39:44;;;;;;;2.80;2.60;;;;;;;11.25;100.00;93298.66;2088906;28;20028;-85
2022/06/06 00:40:49;;;;;;;4.35;2.22;;;;;;;11.47;100.00;93295.50;2106156;28;20128;-85
2022/06/06 00:41:53;;;;;;;8.40;2.80;;;;;;;11.26;100.00;93294.03;2102287;28;20112;-85
2022/06/06 00:42:54;;;;;;;7.65;2.72;;;;;;;11.25;100.00;93292.53;2090012;28;20024;-85
2022/06/06 00:44:29;;;;;;;3.80;2.90;;;;;;;11.27;100.00;93282.91;2081355;28;20032;-85
2022/06/06 00:45:34;;;;;;;4.07;2.70;;;;;;;11.31;100.00;93291.63;2090891;28;20021;-85
2022/06/06 00:46:40;;;;;;;3.05;2.70;;;;;;;11.25;100.00;93287.94;2088758;28;20024;-85
2022/06/06 00:47:44;;;;;;;6.80;2.88;;;;;;;11.24;100.00;93285.69;2099436;28;20024;-85
2022/06/06 00:48:45;;;;;;;4.95;2.88;;;;;;;11.24;100.00;93296.41;2106849;28;20024;-85
2022/06/06 00:49:54;;;;;;;7.10;3.33;;;;;;;11.25;100.00;93284.50;2106181;28;20063;-85
2022/06/06 00:51:10;;;;;;;3.35;2.47;;;;;;;11.27;100.00;93287.53;2091460;28;20496;-85
2022/06/06 00:52:16;;;;;;;3.40;2.90;;;;;;;11.28;100.00;93291.69;2100855;28;20027;-85
2022/06/06 00:53:23;;;;;;;7.13;2.65;;;;;;;11.23;100.00;93278.81;2097805;28;20374;-85
2022/06/06 00:54:31;;;;;;;6.00;2.60;;;;;;;11.29;100.00;93282.53;2090106;28;20020;-85
2022/06/06 00:55:41;;;;;;;3.50;2.80;;;;;;;11.37;100.00;93283.09;2091540;28;20420;-85
2022/06/06 00:56:48;;;;;;;9.95;2.83;;;;;;;11.27;100.00;93282.16;2106705;28;20078;-85
2022/06/06 00:57:56;;;;;;;13.63;2.80;;;;;;;11.14;100.00;93283.97;2106120;28;20035;-86
2022/06/06 00:59:01;;;;;;;6.00;2.60;;;;;;;11.06;100.00;93281.47;2097769;28;20116;-85
2022/06/06 01:00:17;;;;;;;8.20;2.78;;;;;;;11.03;100.00;93284.22;2091074;28;20114;-85
2022/06/06 01:01:20;;;;;;;2.67;2.25;;;;;;;10.96;100.00;93281.69;2091308;28;20043;-85
2022/06/06 01:02:22;;;;;;;3.90;2.67;;;;;;;11.02;100.00;93282.72;2081935;28;20021;-86
2022/06/06 01:03:25;;;;;;;4.78;2.50;;;;;;;11.03;100.00;93276.19;2089745;28;20393;-86
2022/06/06 01:04:29;;;;;;;6.25;2.58;;;;;;;10.85;100.00;93287.25;2089758;28;20400;-85
2022/06/06 01:05:31;;;;;;;4.53;2.65;;;;;;;10.75;100.00;93282.84;2098193;28;20359;-84
2022/06/06 01:06:38;;;;;;;5.13;3.03;;;;;;;10.74;100.00;93276.00;2106062;28;20553;-86
2022/06/06 01:07:39;;;;;;;3.10;2.60;;;;;;;10.76;100.00;93274.44;2097649;28;20024;-86
2022/06/06 01:08:40;;;;;;;3.08;2.88;;;;;;;10.90;100.00;93276.06;2092534;28;20024;-85
2022/06/06 01:09:42;;;;;;;6.95;3.08;;;;;;;10.81;100.00;93275.88;2097730;28;20100;-85
2022/06/06 01:10:43;;;;;;;20.02;3.17;;;;;;;10.76;100.00;93276.34;2097718;28;20940;-85
2022/06/06 01:11:52;;;;;;;3.08;2.88;;;;;;;10.68;100.00;93275.00;2105988;28;20036;-85
2022/06/06 01:12:55;;;;;;;12.20;2.80;;;;;;;10.71;100.00;93277.59;2091576;28;20031;-85
2022/06/06 01:13:57;;;;;;;7.88;2.60;;;;;;;10.77;100.00;93281.28;2097883;28;20060;-85
2022/06/06 01:15:05;;;;;;;6.63;2.63;;;;;;;10.76;100.00;93281.72;2098093;28;20025;-85
2022/06/06 01:16:11;;;;;;;6.07;2.85;;;;;;;10.81;100.00;93283.91;2098633;28;20176;-86
2022/06/06 01:17:25;;;;;;;4.43;2.20;;;;;;;10.87;100.00;93274.22;2090983;28;20185;-85
2022/06/06 01:18:38;;;;;;;13.70;2.60;;;;;;;10.97;100.00;93280.50;2099430;28;20024;-85
2022/06/06 01:20:12;;;;;;;3.45;2.42;;;;;;;10.78;100.00;93284.72;2106018;28;20020;-85
2022/06/06 01:21:55;;;;;;;4.10;2.50;;;;;;;10.89;100.00;93293.28;2106847;28;20022;-85
2022/06/06 01:23:20;;;;;;;7.38;2.95;;;;;;;11.07;100.00;93293.66;2105917;28;20032;-85
2022/06/06 01:24:36;;;;;;;7.65;3.08;;;;;;;10.98;100.00;93288.13;2104296;28;20026;-85
2022/06/06 01:25:42;;;;;;;11.10;3.40;;;;;;;10.85;100.00;93281.91;2107896;28;20023;-85
2022/06/06 01:26:45;;;;;;;11.85;3.45;;;;;;;10.86;100.00;93283.41;2098395;28;20035;-84
2022/06/06 01:28:04;;;;;;;13.35;3.53;;;;;;;10.75;100.00;93280.94;2097783;28;20062;-85
2022/06/06 01:29:15;;;;;;;3.67;3.08;;;;;;;10.79;100.00;93288.88;2099916;28;20062;-85
2022/06/06 01:30:22;;;;;;;4.20;3.20;;;;;;;10.81;100.00;93281.22;2098902;28;20069;-84
2022/06/06 01:31:38;;;;;;;8.02;3.45;;;;;;;10.73;100.00;93282.53;2089927;28;20028;-85
2022/06/06 01:32:43;;;;;;;6.47;3.00;;;;;;;10.71;100.00;93282.16;2093577;28;20800;-85
2022/06/06 01:33:57;;;;;;;7.18;2.95;;;;;;;10.67;100.00;93284.16;2089782;28;20021;-86
2022/06/06 01:34:58;;;;;;;7.68;3.30;;;;;;;10.67;100.00;93281.47;2101341;28;20182;-85
2022/06/06 01:36:05;;;;;;;5.45;2.88;;;;;;;10.72;100.00;93276.41;2105886;28;20032;-84
2022/06/06 01:37:30;;;;;;;6.53;3.42;;;;;;;10.69;100.00;93281.84;2090107;28;20363;-85
2022/06/06 01:38:31;;;;;;;4.03;3.10;;;;;;;10.73;100.00;93275.25;2087585;28;20062;-85
2022/06/06 01:39:32;;;;;;;11.35;3.63;;;;;;;10.73;100.00;93275.25;2081059;28;20816;-86
2022/06/06 01:41:00;;;;;;;7.40;3.58;;;;;;;10.58;100.00;93272.13;2081070;28;20029;-86
2022/06/06 01:42:14;;;;;;;8.65;3.47;;;;;;;10.59;100.00;93276.28;2096688;28;20036;-86
2022/06/06 01:43:21;;;;;;;6.78;3.60;;;;;;;10.49;100.00;93273.81;2104095;28;20119;-85
2022/06/06 01:44:35;;;;;;;6.53;3.75;;;;;;;10.52;100.00;93273.00;2105912;28;20047;-86
2022/06/06 01:45:43;;;;;;;10.27;3.28;;;;;;;10.45;100.00;93270.47;2107330;28;20020;-86
2022/06/06 01:46:47;;;;;;;5.38;3.60;;;;;;;10.43;100.00;93278.88;2104747;28;20023;-86
2022/06/06 01:47:52;;;;;;;6.13;3.25;;;;;;;10.47;100.00;93276.91;2090847;28;20025;-86
2022/06/06 01:48:54;;;;;;;3.65;3.35;;;;;;;10.48;100.00;93281.06;2097672;28;20051;-86
2022/06/06 01:49:58;;;;;;;6.82;3.47;;;;;;;10.40;100.00;93278.94;2097815;28;20028;-85
2022/06/06 01:51:09;;;;;;;12.80;3.63;;;;;;;10.44;100.00;93275.03;2097232;28;20424;-84
2022/06/06 01:52:13;;;;;;;8.18;3.42;;;;;;;10.43;100.00;93278.13;2100093;28;20024;-85
2022/06/06 01:53:18;;;;;;;9.05;3.70;;;;;;;10.37;100.00;93277.09;2097456;28;20485;-85
2022/06/06 01:54:19;;;;;;;6.10;3.60;;;;;;;10.35;100.00;93274.81;2081769;28;20679;-85
2022/06/06 01:55:20;;;;;;;8.05;3.70;;;;;;;10.38;100.00;93270.59;2089143;28;20033;-85
2022/06/06 01:56:29;;;;;;;4.05;3.60;;;;;;;10.42;100.00;93277.38;2097278;28;20028;-85
2022/06/06 01:57:30;;;;;;;3.72;3.38;;;;;;;10.37;100.00;93269.84;2098887;28;20017;-85
2022/06/06 01:58:32;;;;;;;6.03;3.50;;;;;;;10.32;100.00;93270.31;2103189;28;20012;-85
2022/06/06 01:59:33;;;;;;;5.97;3.13;;;;;;;10.29;100.00;93263.88;2106053;28;20512;-85
2022/06/06 02:00:36;;;;;;;3.42;3.13;;;;;;;10.27;100.00;93263.53;2105875;28;20385;-85
2022/06/06 02:01:37;;;;;;;4.78;3.17;;;;;;;10.27;100.00;93262.75;2090827;28;20036;-85
2022/06/06 02:02:40;;;;;;;6.40;3.08;;;;;;;10.24;100.00;93260.91;2097348;28;20020;-85
2022/06/06 02:03:41;;;;;;;4.45;3.53;;;;;;;10.24;100.00;93256.31;2097653;28;20051;-85
2022/06/06 02:04:42;;;;;;;5.35;3.08;;;;;;;10.24;100.00;93250.19;2091855;28;20017;-85
2022/06/06 02:05:43;;;;;;;3.60;3.30;;;;;;;10.31;100.00;93247.41;2097289;28;20124;-85
2022/06/06 02:06:45;;;;;;;3.95;3.55;;;;;;;10.23;100.00;93254.78;2105591;28;20032;-86
2022/06/06 02:07:46;;;;;;;3.50;3.20;;;;;;;10.45;100.00;93249.09;2089275;28;20155;-86
2022/06/06 02:08:50;;;;;;;3.30;3.00;;;;;;;10.60;100.00;93250.31;2097237;28;20381;-86
2022/06/06 02:09:51;;;;;;;4.65;3.20;;;;;;;10.46;100.00;93243.31;2093592;28;20033;-86
2022/06/06 02:10:53;;;;;;;4.75;3.17;;;;;;;10.48;100.00;93248.25;2097175;28;20024;-85
2022/06/06 02:13:37;;;;;;;4.25;2.80;;;;;;;10.53;100.00;93245.84;2131060;27;20191;-88
2022/06/06 02:14:38;;;;;;;3.17;2.92;;;;;;;10.59;100.00;93238.88;2113800;28;20058;-90
2022/06/06 02:15:40;;;;;;;5.15;3.00;;;;;;;10.67;100.00;93244.84;2097059;28;20031;-89
2022/06/06 02:16:53;;;;;;;3.83;3.22;;;;;;;10.64;100.00;93240.31;2105312;28;20511;-89
2022/06/06 02:17:55;;;;;;;5.85;2.90;;;;;;;10.63;100.00;93240.72;2108449;28;20571;-89
2022/06/06 02:18:56;;;;;;;4.20;3.22;;;;;;;10.71;100.00;93239.38;2113627;28;20093;-88
2022/06/06 02:19:57;;;;;;;6.28;3.10;;;;;;;10.61;100.00;93237.69;2105130;28;20016;-89
2022/06/06 02:21:01;;;;;;;6.57;3.30;;;;;;;10.50;100.00;93230.66;2096883;28;20020;-89
2022/06/06 02:22:03;;;;;;;5.43;3.30;;;;;;;10.46;100.00;93229.97;2113397;28;20523;-87
2022/06/06 02:23:05;;;;;;;4.43;2.85;;;;;;;10.39;100.00;93232.00;2096990;28;20032;-88
2022/06/06 02:24:07;;;;;;;4.85;2.92;;;;;;;10.34;100.00;93233.25;2105520;28;20102;-88
2022/06/06 02:25:10;;;;;;;4.43;2.90;;;;;;;10.28;100.00;93232.97;2105272;28;20511;-89
2022/06/06 02:26:12;;;;;;;6.85;2.95;;;;;;;10.19;100.00;93246.09;2097219;28;20023;-88
2022/06/06 02:27:13;;;;;;;11.75;3.33;;;;;;;10.17;100.00;93239.63;2097104;28;20115;-87
2022/06/06 02:28:15;;;;;;;8.90;3.22;;;;;;;10.26;100.00;93247.91;2096547;28;20033;-88
2022/06/06 02:29:16;;;;;;;5.25;3.30;;;;;;;10.28;100.00;93245.59;2088859;28;20032;-89
2022/06/06 02:30:23;;;;;;;4.63;3.10;;;;;;;10.24;100.00;93244.88;2096821;28;20029;-87
2022/06/06 02:31:24;;;;;;;4.07;3.22;;;;;;;10.39;100.00;93235.44;2104978;28;20078;-88
2022/06/06 02:32:25;;;;;;;5.05;3.58;;;;;;;10.52;100.00;93241.66;2088261;28;20029;-87
2022/06/06 02:33:26;;;;;;;3.22;3.03;;;;;;;10.40;100.00;93233.50;2088543;28;20459;-87
2022/06/06 02:34:27;;;;;;;8.07;3.58;;;;;;;10.32;100.00;93235.59;2088420;28;20120;-87
2022/06/06 02:35:32;;;;;;;7.03;3.90;;;;;;;10.40;100.00;93223.56;2105100;28;20020;-88
2022/06/06 02:36:37;;;;;;;4.03;3.40;;;;;;;10.32;100.00;93230.25;2105238;28;20024;-88
2022/06/06 02:37:41;;;;;;;6.60;4.18;;;;;;;10.23;100.00;93230.00;2089402;28;20025;-87
2022/06/06 02:38:42;;;;;;;4.70;2.95;;;;;;;10.34;100.00;93217.22;2104963;28;20048;-87
2022/06/06 02:39:43;;;;;;;5.63;3.08;;;;;;;10.23;100.00;93217.41;2088637;28;20454;-87
2022/06/06 02:40:44;;;;;;;6.93;2.97;;;;;;;10.14;100.00;93221.75;2096791;28;20864;-89
2022/06/06 02:41:45;;;;;;;3.50;2.90;;;;;;;10.17;100.00;93226.28;2096644;28;20031;-90
2022/06/06 02:42:46;;;;;;;5.63;3.30;;;;;;;9.99;100.00;93215.94;2088309;28;20501;-89
2022/06/06 02:43:47;;;;;;;5.50;2.90;;;;;;;9.93;100.00;93222.91;2088294;28;20025;-89
2022/06/06 02:44:48;;;;;;;6.97;3.25;;;;;;;10.17;100.00;93226.28;2105115;28;20024;-88
2022/06/06 02:45:50;;;;;;;10.93;3.47;;;;;;;10.27;100.00;93220.78;2104941;28;20125;-90
2022/06/06 02:46:51;;;;;;;43.70;3.95;;;;;;;10.45;100.00;93220.44;2096650;28;20020;-88
2022/06/06 02:47:55;;;;;;;10.48;3.25;;;;;;;10.20;100.00;93234.25;2096541;28;20112;-87
2022/06/06 02:48:56;;;;;;;7.15;3.20;;;;;;;10.30;100.00;93225.28;2089264;28;20025;-87
2022/06/06 02:49:57;;;;;;;4.78;3.40;;;;;;;10.23;100.00;93227.34;2096579;28;20021;-87
2022/06/06 02:50:59;;;;;;;7.28;3.53;;;;;;;10.06;100.00;93229.91;2088251;28;20048;-89
2022/06/06 02:52:05;;;;;;;7.93;3.35;;;;;;;9.98;100.00;93222.44;2088606;28;20025;-88
2022/06/06 02:53:06;;;;;;;4.97;3.38;;;;;;;10.03;100.00;93225.38;2097709;28;20031;-88
2022/06/06 02:54:07;;;;;;;3.33;3.03;;;;;;;10.08;100.00;93230.25;2096526;28;20021;-89
2022/06/06 02:55:09;;;;;;;3.58;3.28;;;;;;;9.99;100.00;93230.03;2088382;28;20022;-88
2022/06/06 02:56:11;;;;;;;4.00;3.30;;;;;;;9.99;100.00;93226.59;2100026;28;20052;-88
2022/06/06 02:57:11;;;;;;;3.47;3.17;;;;;;;9.94;100.00;93230.50;2105033;28;20059;-86
2022/06/06 02:58:13;;;;;;;5.72;3.30;;;;;;;9.91;100.00;93227.88;2096256;28;20055;-88
2022/06/06 02:59:18;;;;;;;5.25;3.80;;;;;;;10.02;100.00;93228.47;2096543;28;20504;-87
2022/06/06 03:00:27;;;;;;;4.53;3.63;;;;;;;9.94;100.00;93229.75;2097706;28;20075;-88
2022/06/06 03:01:28;;;;;;;9.00;3.53;;;;;;;9.97;100.00;93224.34;2098560;28;20036;-89
2022/06/06 03:02:29;;;;;;;4.57;4.18;;;;;;;10.10;100.00;93224.50;2104794;28;20528;-90
2022/06/06 03:03:31;;;;;;;5.20;3.47;;;;;;;10.04;100.00;93224.22;2104727;28;20028;-89
2022/06/06 03:04:32;;;;;;;8.88;4.03;;;;;;;9.99;100.00;93222.03;2096936;28;20051;-88
2022/06/06 03:06:05;;;;;;;3.90;3.60;;;;;;;9.79;100.00;93219.31;2096352;28;20206;-87
2022/06/06 03:07:43;;;;;;;6.95;3.97;;;;;;;9.82;100.00;93226.50;2104965;28;20028;-88
2022/06/06 03:08:52;;;;;;;4.85;3.28;;;;;;;9.63;100.00;93221.88;2098184;28;20389;-89
2022/06/06 03:10:19;;;;;;;3.75;3.47;;;;;;;9.62;100.00;93224.97;2090409;28;20036;-88
2022/06/06 03:11:42;;;;;;;3.75;3.40;;;;;;;9.63;100.00;93218.47;2095273;28;20036;-88
2022/06/06 03:12:58;;;;;;;3.88;2.97;;;;;;;9.66;100.00;93223.75;2094027;28;20062;-87
2022/06/06 03:14:35;;;;;;;5.70;3.22;;;;;;;9.55;100.00;93223.91;2092097;28;20056;-91
2022/06/06 03:15:42;;;;;;;5.60;3.30;;;;;;;9.44;100.00;93228.66;2098014;28;20051;-90
2022/06/06 03:21:39;;;;;;;7.47;3.28;;;;;;;9.51;100.00;93233.13;2108486;28;20029;-90
2022/06/06 03:22:58;;;;;;;6.32;3.20;;;;;;;9.55;100.00;93233.81;2107802;28;20016;-89
2022/06/06 03:24:15;;;;;;;3.67;3.37;;;;;;;9.67;100.00;93230.59;2098676;28;20024;-89
2022/06/06 03:25:32;;;;;;;4.50;3.50;;;;;;;9.63;100.00;93235.22;2086440;28;20448;-89
2022/06/06 03:27:19;;;;;;;4.57;3.65;;;;;;;9.71;100.00;93230.53;2087050;28;20053;-89
2022/06/06 03:28:34;;;;;;;4.07;3.50;;;;;;;9.59;100.00;93229.94;2078158;28;20026;-88
2022/06/06 03:30:03;;;;;;;4.65;3.83;;;;;;;9.59;100.00;93232.59;2084609;28;20024;-87
2022/06/06 03:31:22;;;;;;;6.18;3.33;;;;;;;9.66;100.00;93241.66;2081761;28;20025;-89
2022/06/06 03:32:49;;;;;;;4.50;3.45;;;;;;;9.66;100.00;93241.66;2095719;28;20024;-90
2022/06/06 03:34:11;;;;;;;12.38;4.07;;;;;;;9.77;100.00;93244.91;2090528;28;20464;-88
2022/06/06 03:35:22;;;;;;;4.18;3.78;;;;;;;9.61;100.00;93242.88;2085463;28;20029;-90
2022/06/06 03:36:32;;;;;;;;;;;;;;;9.57;100.00;93248.28;2077394;28;20128;-85
2022/06/06 03:37:39;;;;;;;14.18;3.80;;;;;;;9.57;100.00;93244.88;2083096;28;19909;-87
2022/06/06 03:39:17;;;;;;;19.10;4.00;;;;;;;9.52;100.00;93246.06;2083855;28;20029;-87
2022/06/06 03:40:47;;;;;;;6.28;3.22;;;;;;;9.57;100.00;93250.19;2095614;28;20484;-87
2022/06/06 03:41:51;;;;;;;;;;;;;;;9.43;100.00;93242.41;2091016;28;20060;-84
2022/06/06 03:43:01;;;;;;;6.45;3.60;;;;;;;9.44;100.00;93251.91;2083183;28;20349;-86
2022/06/06 03:44:17;;;;;;;26.38;3.60;;;;;;;9.44;100.00;93249.22;2091844;28;20048;-89
2022/06/06 03:45:25;;;;;;;16.77;3.35;;;;;;;9.53;100.00;93250.25;2084399;28;20056;-89
2022/06/06 03:46:50;;;;;;;13.43;3.50;;;;;;;9.47;100.00;93254.53;2075922;28;20108;-89
2022/06/06 03:48:16;;;;;;;35.63;3.25;;;;;;;9.71;100.00;93249.97;2080923;28;20091;-88
2022/06/06 03:49:50;;;;;;;31.17;3.00;;;;;;;9.56;100.00;93252.09;2080788;28;20071;-88
2022/06/06 03:51:00;;;;;;;7.45;3.38;;;;;;;9.61;100.00;93252.78;2083450;28;20067;-90
2022/06/06 03:52:14;;;;;;;5.55;3.30;;;;;;;9.52;100.00;93248.72;2093174;28;20054;-89
2022/06/06 03:53:22;;;;;;;3.85;3.30;;;;;;;9.91;100.00;93255.34;2092252;28;20397;-89
2022/06/06 03:54:50;;;;;;;3.45;3.15;;;;;;;9.72;100.00;93254.13;2092949;28;20029;-88
2022/06/06 03:56:18;;;;;;;4.55;3.38;;;;;;;9.64;100.00;93262.66;2094176;28;20174;-89
2022/06/06 03:57:23;;;;;;;3.33;3.03;;;;;;;9.52;100.00;93255.97;2102656;28;20030;-90
2022/06/06 03:58:30;;;;;;;2.78;2.50;;;;;;;9.57;100.00;93253.63;2098731;28;20070;-87
2022/06/06 03:59:34;;;;;;;4.68;3.63;;;;;;;9.64;100.00;93247.41;2091519;28;20075;-88
2022/06/06 04:00:35;;;;;;;3.95;3.60;;;;;;;9.56;100.00;93252.09;2084916;28;20120;-87
2022/06/06 04:01:39;;;;;;;4.85;3.40;;;;;;;9.56;100.00;93252.09;2090585;28;20028;-89
2022/06/06 04:02:42;;;;;;;4.80;3.25;;;;;;;9.60;100.00;93252.03;2090923;28;20527;-89
2022/06/06 04:03:44;;;;;;;4.68;3.40;;;;;;;9.52;100.00;93248.72;2082413;28;20049;-88
2022/06/06 04:04:46;;;;;;;3.75;3.45;;;;;;;9.51;100.00;93246.47;2082457;28;20584;-88
2022/06/06 04:05:47;;;;;;;7.35;3.30;;;;;;;9.52;100.00;93245.31;2082926;28;20026;-87
2022/06/06 04:06:51;;;;;;;4.05;3.13;;;;;;;9.58;100.00;93249.03;2082198;28;20048;-87
2022/06/06 04:07:52;;;;;;;5.70;2.75;;;;;;;9.53;100.00;93247.59;2087660;28;20016;-87
2022/06/06 04:08:54;;;;;;;10.32;3.17;;;;;;;9.58;100.00;93254.38;2090442;28;20426;-88
2022/06/06 04:09:55;;;;;;;3.85;3.05;;;;;;;9.50;100.00;93253.72;2082701;28;20433;-87
2022/06/06 04:11:08;;;;;;;3.50;3.20;;;;;;;9.56;100.00;93254.75;2082425;28;20029;-90
2022/06/06 04:12:10;;;;;;;3.35;3.13;;;;;;;9.57;100.00;93252.88;2093676;28;20389;-88
2022/06/06 04:13:37;;;;;;;5.32;3.60;;;;;;;9.58;100.00;93259.72;2098842;28;20040;-88
2022/06/06 04:15:01;;;;;;;6.03;3.33;;;;;;;9.56;100.00;93262.00;2093958;28;20031;-88
2022/06/06 04:16:16;;;;;;;7.07;3.55;;;;;;;9.65;100.00;93259.56;2089101;28;20031;-89
2022/06/06 04:17:55;;;;;;;4.47;3.50;;;;;;;9.63;100.00;93258.50;2085754;28;20053;-88
2022/06/06 04:19:20;;;;;;;5.13;3.70;;;;;;;9.68;100.00;93258.78;2089353;28;20064;-87
2022/06/06 04:20:35;;;;;;;5.47;3.22;;;;;;;9.79;100.00;93266.63;2096721;28;20117;-88
2022/06/06 04:21:51;;;;;;;3.33;3.13;;;;;;;9.86;100.00;93268.41;2092192;28;20111;-88
2022/06/06 04:23:00;;;;;;;3.45;2.90;;;;;;;9.98;100.00;93259.81;2094456;28;20040;-87
2022/06/06 04:24:24;;;;;;;3.90;3.60;;;;;;;10.02;100.00;93273.88;2091528;28;20091;-87
2022/06/06 04:25:45;;;;;;;4.80;3.67;;;;;;;10.05;100.00;93260.47;2093293;28;20834;-89
2022/06/06 04:26:58;;;;;;;4.55;3.45;;;;;;;10.16;100.00;93259.50;2096094;28;20077;-87
2022/06/06 04:28:30;;;;;;;4.47;3.28;;;;;;;10.21;100.00;93253.69;2092585;28;20028;-90
2022/06/06 04:29:55;;;;;;;4.63;3.25;;;;;;;10.26;100.00;93262.00;2092004;28;20032;-90
2022/06/06 04:31:24;;;;;;;5.20;3.00;;;;;;;10.38;100.00;93255.31;2097202;28;20021;-88
2022/06/06 04:32:38;;;;;;;3.58;3.33;;;;;;;10.47;100.00;93244.81;2096091;28;20024;-87
2022/06/06 04:34:08;;;;;;;4.78;4.00;;;;;;;10.38;100.00;93257.22;2092817;28;20025;-87
2022/06/06 04:35:28;;;;;;;3.63;3.08;;;;;;;10.37;100.00;93251.13;2094958;28;20040;-88
2022/06/06 04:36:36;;;;;;;;;;;;;;;10.36;100.00;93246.97;2094800;28;20386;-84
2022/06/06 04:37:55;;;;;;;2.85;2.65;;;;;;;10.49;100.00;93247.06;2082930;28;19913;-88
2022/06/06 04:39:00;;;;;;;3.80;3.10;;;;;;;10.48;100.00;93253.59;2078527;28;20115;-88
2022/06/06 04:40:20;;;;;;;5.78;3.33;;;;;;;10.47;100.00;93254.75;2078589;28;20362;-87
2022/06/06 04:41:35;;;;;;;5.30;3.42;;;;;;;10.51;100.00;93236.75;2086359;28;20382;-87
2022/06/06 04:42:45;;;;;;;4.10;3.70;;;;;;;10.58;100.00;93245.38;2086320;28;20029;-88
2022/06/06 04:44:04;;;;;;;6.13;3.45;;;;;;;10.63;100.00;93251.41;2084736;28;20155;-87
2022/06/06 04:45:15;;;;;;;4.13;3.77;;;;;;;10.70;100.00;93253.94;2087121;28;20069;-87
2022/06/06 04:46:48;;;;;;;7.93;3.95;;;;;;;10.97;100.00;93251.84;2091618;28;20036;-87
2022/06/06 04:47:50;;;;;;;9.20;3.92;;;;;;;10.99;100.00;93246.09;2090399;28;20033;-88
2022/06/06 04:48:53;;;;;;;5.38;4.00;;;;;;;11.02;100.00;93248.69;2090469;28;20029;-90
2022/06/06 04:49:57;;;;;;;5.05;3.63;;;;;;;10.95;100.00;93250.75;2090416;28;20031;-87
2022/06/06 04:50:59;;;;;;;4.05;3.60;;;;;;;10.94;100.00;93247.34;2082580;28;20056;-88
2022/06/06 04:52:03;;;;;;;3.70;3.40;;;;;;;10.94;100.00;93255.34;2082095;28;20029;-89
2022/06/06 04:53:08;;;;;;;11.77;3.88;;;;;;;10.89;100.00;93253.16;2082597;28;20470;-88
2022/06/06 04:54:17;;;;;;;3.67;3.17;;;;;;;10.97;100.00;93249.16;2083003;28;20116;-88
2022/06/06 04:55:20;;;;;;;6.38;3.17;;;;;;;10.95;100.00;93259.53;2080068;28;20033;-87
2022/06/06 04:56:22;;;;;;;5.93;3.50;;;;;;;11.06;100.00;93257.41;2084727;28;20025;-88
2022/06/06 04:57:24;;;;;;;3.20;3.00;;;;;;;11.00;100.00;93253.69;2089727;28;20553;-89
2022/06/06 04:58:29;;;;;;;4.72;3.15;;;;;;;10.93;100.00;93258.41;2089527;28;20025;-89
2022/06/06 04:59:31;;;;;;;5.65;3.47;;;;;;;10.97;100.00;93259.09;2081682;28;20466;-87
2022/06/06 05:00:35;;;;;;;4.82;3.35;;;;;;;10.96;100.00;93253.00;2080774;28;20029;-89
2022/06/06 05:01:43;;;;;;;3.65;3.03;;;;;;;10.95;100.00;93256.84;2089699;28;20650;-89
2022/06/06 05:02:45;;;;;;;4.30;2.88;;;;;;;11.00;100.00;93256.38;2083298;28;20087;-89
2022/06/06 05:03:46;;;;;;;3.80;3.38;;;;;;;11.02;100.00;93253.28;2081377;28;20104;-89
2022/06/06 05:04:47;;;;;;;3.70;3.22;;;;;;;11.07;100.00;93258.16;2072931;28;20021;-88
2022/06/06 05:06:15;;;;;;;3.05;2.85;;;;;;;11.08;100.00;93262.31;2073023;28;20068;-91
2022/06/06 05:07:53;;;;;;;9.00;3.00;;;;;;;11.04;100.00;93259.72;2088268;28;20021;-87
2022/06/06 05:09:12;;;;;;;5.32;2.83;;;;;;;11.07;100.00;93264.25;2085846;28;20197;-90
2022/06/06 05:10:20;;;;;;;3.47;3.17;;;;;;;11.19;100.00;93267.44;2083707;28;20025;-88
2022/06/06 05:11:30;;;;;;;7.70;3.72;;;;;;;11.18;100.00;93260.56;2079868;28;20049;-89
2022/06/06 05:13:10;;;;;;;4.35;3.22;;;;;;;11.22;100.00;93262.00;2091819;28;20031;-88
2022/06/06 05:14:17;;;;;;;14.95;3.55;;;;;;;11.23;100.00;93266.19;2094306;28;20859;-88
2022/06/06 05:15:31;;;;;;;3.30;3.03;;;;;;;11.30;100.00;93273.31;2090243;28;20028;-88
2022/06/06 05:16:56;;;;;;;3.60;3.22;;;;;;;11.37;100.00;93267.81;2082898;28;20022;-87
2022/06/06 05:18:07;;;;;;;4.65;3.33;;;;;;;11.32;100.00;93263.69;2088742;28;20020;-88
2022/06/06 05:19:24;;;;;;;4.50;3.63;;;;;;;11.35;100.00;93270.13;2090653;28;20025;-88
2022/06/06 05:20:48;;;;;;;5.97;3.10;;;;;;;11.38;100.00;93272.00;2093975;28;20025;-88
2022/06/06 05:22:09;;;;;;;4.38;3.85;;;;;;;11.34;100.00;93269.38;2106322;28;20141;-91
2022/06/06 05:23:34;;;;;;;4.47;3.70;;;;;;;11.40;100.00;93271.56;2097274;28;20024;-89
2022/06/06 05:25:00;;;;;;;10.63;4.05;;;;;;;11.45;100.00;93260.34;2075245;28;20651;-88
2022/06/06 05:26:16;;;;;;;3.97;3.63;;;;;;;11.51;100.00;93272.84;2092638;28;20075;-89
2022/06/06 05:27:32;;;;;;;4.50;4.03;;;;;;;11.62;100.00;93269.16;2099689;28;20028;-89
2022/06/06 05:28:42;;;;;;;7.38;4.10;;;;;;;11.61;100.00;93268.41;2091398;28;20076;-89
2022/06/06 05:30:04;;;;;;;8.18;3.80;;;;;;;11.65;100.00;93265.66;2083404;28;20029;-88
2022/06/06 05:31:43;;;;;;;7.20;4.47;;;;;;;11.65;100.00;93268.34;2086427;28;20040;-89
2022/06/06 05:32:51;;;;;;;5.10;4.60;;;;;;;11.80;100.00;93266.81;2090965;28;20174;-88